createdAt,value
2018-05-18T00:01:18.144Z,92.30
2018-05-18T00:03:46.438Z,92.40
2018-05-18T00:06:14.844Z,92.40
2018-05-18T00:08:42.370Z,92.40
2018-05-18T00:11:09.930Z,92.50
2018-05-18T00:13:37.456Z,92.40
2018-05-18T00:16:04.990Z,92.40
2018-05-18T00:18:32.531Z,92.50
2018-05-18T00:21:00.951Z,92.50
2018-05-18T00:23:28.494Z,92.50
2018-05-18T00:25:56.796Z,92.40
2018-05-18T00:28:24.464Z,92.40
2018-05-18T00:30:51.975Z,92.50
2018-05-18T00:33:19.514Z,92.50
2018-05-18T00:35:47.087Z,92.60
2018-05-18T00:38:14.626Z,92.50
2018-05-18T00:40:42.173Z,92.50
2018-05-18T00:43:09.746Z,92.50
2018-05-18T00:45:37.276Z,92.60
2018-05-18T00:48:05.596Z,92.50
2018-05-18T00:50:33.130Z,92.50
2018-05-18T00:53:01.454Z,92.50
2018-05-18T00:55:40.593Z,92.50
2018-05-18T00:58:08.153Z,92.40
2018-05-18T01:00:35.669Z,92.40
2018-05-18T01:03:04.015Z,92.30
2018-05-18T01:05:31.547Z,92.30
2018-05-18T01:07:59.080Z,92.20
2018-05-18T01:10:27.411Z,92.10
2018-05-18T01:12:54.940Z,92.10
2018-05-18T01:15:22.479Z,92.00
2018-05-18T01:17:50.765Z,91.80
2018-05-18T01:20:19.100Z,91.90
2018-05-18T01:22:46.621Z,91.90
2018-05-18T01:25:14.956Z,91.70
2018-05-18T01:27:42.492Z,91.70
2018-05-18T01:30:10.027Z,91.80
2018-05-18T01:32:38.364Z,91.80
2018-05-18T01:35:06.729Z,91.80
2018-05-18T01:37:34.386Z,91.60
2018-05-18T01:40:01.925Z,91.60
2018-05-18T01:42:30.332Z,91.50
2018-05-18T01:44:57.894Z,91.50
2018-05-18T01:47:25.462Z,91.40
2018-05-18T01:49:53.016Z,91.40
2018-05-18T01:52:20.548Z,91.40
2018-05-18T01:54:48.076Z,91.50
2018-05-18T01:57:15.624Z,91.40
2018-05-18T01:59:43.158Z,91.50
2018-05-18T02:02:11.472Z,91.60
2018-05-18T02:04:38.994Z,91.60
2018-05-18T02:07:07.410Z,91.40
2018-05-18T02:09:34.941Z,91.30
2018-05-18T02:12:03.279Z,91.40
2018-05-18T02:14:30.828Z,91.40
2018-05-18T02:16:58.680Z,91.50
2018-05-18T02:19:26.246Z,91.40
2018-05-18T02:21:53.793Z,91.50
2018-05-18T02:24:22.111Z,91.40
2018-05-18T02:26:49.661Z,91.40
2018-05-18T02:29:17.205Z,91.30
2018-05-18T02:31:45.502Z,91.20
2018-05-18T02:34:13.056Z,91.10
2018-05-18T02:36:41.385Z,91.00
2018-05-18T02:39:08.925Z,91.00
2018-05-18T02:41:36.596Z,91.00
2018-05-18T02:44:04.147Z,91.00
2018-05-18T02:46:31.710Z,91.00
2018-05-18T02:48:59.253Z,90.90
2018-05-18T02:51:27.566Z,90.90
2018-05-18T02:53:55.642Z,90.90
2018-05-18T02:56:23.161Z,90.90
2018-05-18T02:58:51.491Z,90.90
2018-05-18T03:01:19.024Z,90.80
2018-05-18T03:03:47.433Z,90.90
2018-05-18T03:06:15.000Z,90.90
2018-05-18T03:08:42.664Z,91.00
2018-05-18T03:11:10.212Z,91.00
2018-05-18T03:13:37.754Z,91.00
2018-05-18T03:16:06.074Z,91.00
2018-05-18T03:18:33.648Z,91.00
2018-05-18T03:21:01.246Z,91.10
2018-05-18T03:23:28.736Z,91.00
2018-05-18T03:25:57.070Z,91.10
2018-05-18T03:28:24.620Z,91.10
2018-05-18T03:30:52.170Z,91.10
2018-05-18T03:33:19.710Z,91.10
2018-05-18T03:35:48.041Z,91.00
2018-05-18T03:38:15.576Z,90.90
2018-05-18T03:40:43.106Z,90.80
2018-05-18T03:43:10.681Z,90.70
2018-05-18T03:45:39.005Z,90.60
2018-05-18T03:48:06.567Z,90.60
2018-05-18T03:50:34.107Z,90.50
2018-05-18T03:53:02.445Z,90.60
2018-05-18T03:55:30.077Z,90.60
2018-05-18T03:57:58.370Z,90.50
2018-05-18T04:00:25.922Z,90.40
2018-05-18T04:03:05.357Z,90.50
2018-05-18T04:05:44.751Z,90.80
2018-05-18T04:08:45.819Z,90.70
2018-05-18T04:11:13.369Z,90.50
2018-05-18T04:13:41.665Z,90.50
2018-05-18T04:16:09.229Z,90.50
2018-05-18T04:18:36.759Z,90.50
2018-05-18T04:21:05.098Z,90.50
2018-05-18T04:23:32.627Z,90.40
2018-05-18T04:26:00.167Z,90.30
2018-05-18T04:28:27.715Z,90.30
2018-05-18T04:30:55.244Z,90.30
2018-05-18T04:33:22.902Z,90.20
2018-05-18T04:35:50.463Z,90.20
2018-05-18T04:38:18.027Z,90.10
2018-05-18T04:40:45.571Z,90.10
2018-05-18T04:43:13.875Z,90.00
2018-05-18T04:45:41.441Z,90.00
2018-05-18T04:48:08.977Z,90.10
2018-05-18T04:50:37.310Z,90.30
2018-05-18T04:53:04.852Z,90.30
2018-05-18T04:55:32.381Z,90.20
2018-05-18T04:58:00.704Z,89.90
2018-05-18T05:00:28.240Z,89.90
2018-05-18T05:02:56.642Z,89.40
2018-05-18T05:05:24.196Z,89.40
2018-05-18T05:07:52.591Z,89.60
2018-05-18T05:10:20.116Z,89.60
2018-05-18T05:12:47.653Z,89.80
2018-05-18T05:15:15.212Z,89.20
2018-05-18T05:17:42.748Z,89.10
2018-05-18T05:20:10.322Z,89.40
2018-05-18T05:22:37.975Z,89.30
2018-05-18T05:25:05.644Z,89.50
2018-05-18T05:27:33.177Z,89.90
2018-05-18T05:30:01.479Z,89.50
2018-05-18T05:32:29.052Z,89.40
2018-05-18T05:34:56.592Z,90.00
2018-05-18T05:37:24.911Z,89.40
2018-05-18T05:39:52.444Z,89.30
2018-05-18T05:42:20.769Z,88.70
2018-05-18T05:44:48.289Z,88.70
2018-05-18T05:47:16.599Z,90.00
2018-05-18T05:49:44.260Z,90.00
2018-05-18T05:52:11.807Z,88.80
2018-05-18T05:54:39.349Z,90.00
2018-05-18T05:57:06.879Z,90.10
2018-05-18T05:59:34.428Z,90.00
2018-05-18T06:02:01.951Z,88.50
2018-05-18T06:04:30.363Z,88.60
2018-05-18T06:06:57.895Z,88.60
2018-05-18T06:09:26.207Z,88.20
2018-05-18T06:11:53.763Z,88.10
2018-05-18T06:14:21.297Z,88.00
2018-05-18T06:16:48.851Z,88.20
2018-05-18T06:19:16.381Z,88.20
2018-05-18T06:21:43.925Z,88.00
2018-05-18T06:24:11.534Z,87.50
2018-05-18T06:26:39.025Z,88.40
2018-05-18T06:29:07.356Z,88.10
2018-05-18T06:31:34.905Z,88.00
2018-05-18T06:34:02.451Z,88.40
2018-05-18T06:36:30.754Z,87.80
2018-05-18T06:38:58.306Z,87.80
2018-05-18T06:41:25.850Z,87.50
2018-05-18T06:43:54.154Z,88.70
2018-05-18T06:46:21.692Z,88.70
2018-05-18T06:48:50.105Z,87.80
2018-05-18T06:51:18.421Z,87.60
2018-05-18T06:53:45.950Z,87.50
2018-05-18T06:56:13.476Z,85.60
2018-05-18T06:58:41.048Z,87.20
2018-05-18T07:01:08.566Z,85.70
2018-05-18T07:03:36.117Z,86.50
2018-05-18T07:06:03.644Z,85.40
2018-05-18T07:08:31.947Z,85.80
2018-05-18T07:10:59.515Z,85.80
2018-05-18T07:13:27.068Z,85.40
2018-05-18T07:15:54.591Z,85.40
2018-05-18T07:18:22.149Z,84.40
2018-05-18T07:20:49.695Z,83.40
2018-05-18T07:23:17.222Z,84.00
2018-05-18T07:25:44.779Z,83.80
2018-05-18T07:28:13.187Z,83.40
2018-05-18T07:30:40.858Z,83.40
2018-05-18T07:33:08.401Z,82.40
2018-05-18T07:35:35.943Z,83.10
2018-05-18T07:38:03.499Z,83.10
2018-05-18T07:40:31.035Z,83.40
2018-05-18T07:42:58.605Z,82.60
2018-05-18T07:45:26.134Z,82.30
2018-05-18T07:47:53.809Z,82.60
2018-05-18T07:50:21.344Z,82.50
2018-05-18T07:52:49.752Z,82.50
2018-05-18T07:55:17.290Z,82.50
2018-05-18T07:57:45.600Z,80.60
2018-05-18T08:00:13.160Z,80.60
2018-05-18T08:02:40.731Z,81.20
2018-05-18T08:05:08.281Z,81.80
2018-05-18T08:07:36.582Z,81.90
2018-05-18T08:10:04.135Z,81.80
2018-05-18T08:12:31.697Z,81.70
2018-05-18T08:14:59.244Z,81.40
2018-05-18T08:17:27.628Z,80.70
2018-05-18T08:19:55.916Z,82.10
2018-05-18T08:22:23.600Z,82.00
2018-05-18T08:24:51.136Z,80.90
2018-05-18T08:27:23.376Z,78.20
2018-05-18T08:29:50.914Z,78.20
2018-05-18T08:32:18.474Z,78.80
2018-05-18T08:34:46.012Z,81.80
2018-05-18T08:37:13.548Z,82.80
2018-05-18T08:39:41.101Z,80.20
2018-05-18T08:42:09.479Z,78.40
2018-05-18T08:44:37.820Z,78.30
2018-05-18T08:47:05.350Z,78.30
2018-05-18T08:49:33.652Z,79.90
2018-05-18T08:52:01.192Z,79.80
2018-05-18T08:54:29.494Z,78.60
2018-05-18T08:56:57.047Z,78.60
2018-05-18T08:59:25.345Z,77.80
2018-05-18T09:01:52.922Z,77.80
2018-05-18T09:04:21.304Z,77.10
2018-05-18T09:06:48.829Z,77.00
2018-05-18T09:09:16.392Z,78.90
2018-05-18T09:11:43.925Z,81.60
2018-05-18T09:14:11.480Z,81.70
2018-05-18T09:16:39.037Z,80.20
2018-05-18T09:19:06.589Z,79.40
2018-05-18T09:21:34.114Z,78.30
2018-05-18T09:24:01.683Z,77.80
2018-05-18T09:26:30.027Z,79.30
2018-05-18T09:28:57.547Z,79.70
2018-05-18T09:31:25.877Z,80.20
2018-05-18T09:33:53.427Z,80.20
2018-05-18T09:36:21.003Z,80.30
2018-05-18T09:38:48.545Z,81.00
2018-05-18T09:41:16.092Z,78.70
2018-05-18T09:43:43.633Z,80.20
2018-05-18T09:46:11.985Z,78.50
2018-05-18T09:48:39.679Z,78.00
2018-05-18T09:51:07.219Z,80.90
2018-05-18T09:53:34.757Z,78.70
2018-05-18T09:56:02.329Z,75.00
2018-05-18T09:58:29.880Z,77.70
2018-05-18T10:00:57.419Z,78.60
2018-05-18T10:03:25.755Z,76.60
2018-05-18T10:05:53.288Z,76.50
2018-05-18T10:08:20.854Z,74.60
2018-05-18T10:10:49.180Z,70.60
2018-05-18T10:13:18.247Z,70.90
2018-05-18T10:15:45.811Z,70.80
2018-05-18T10:18:13.359Z,67.30
2018-05-18T10:20:40.893Z,71.10
2018-05-18T10:23:09.201Z,71.80
2018-05-18T10:25:36.746Z,71.70
2018-05-18T10:28:05.063Z,73.80
2018-05-18T10:30:32.603Z,73.80
2018-05-18T10:33:00.159Z,76.80
2018-05-18T10:35:28.560Z,75.00
2018-05-18T10:37:56.101Z,75.20
2018-05-18T10:40:24.406Z,73.90
2018-05-18T10:42:51.936Z,73.90
2018-05-18T10:45:19.509Z,69.20
2018-05-18T10:47:47.920Z,67.60
2018-05-18T10:50:15.483Z,67.50
2018-05-18T10:52:43.051Z,68.70
2018-05-18T10:55:10.592Z,70.40
2018-05-18T10:57:38.900Z,67.60
2018-05-18T11:00:06.437Z,67.60
2018-05-18T11:02:34.850Z,69.20
2018-05-18T11:05:03.166Z,67.70
2018-05-18T11:07:30.790Z,67.70
2018-05-18T11:09:58.357Z,66.30
2018-05-18T11:12:25.897Z,66.50
2018-05-18T11:14:54.206Z,70.70
2018-05-18T11:17:21.730Z,70.70
2018-05-18T11:19:50.062Z,70.90
2018-05-18T11:22:17.614Z,71.00
2018-05-18T11:24:45.208Z,69.10
2018-05-18T11:27:12.846Z,66.50
2018-05-18T11:29:40.398Z,67.60
2018-05-18T11:32:07.976Z,69.60
2018-05-18T11:34:35.556Z,68.30
2018-05-18T11:37:03.123Z,69.30
2018-05-18T11:39:30.660Z,64.40
2018-05-18T11:41:58.239Z,63.60
2018-05-18T11:44:25.800Z,63.50
2018-05-18T11:46:53.360Z,65.60
2018-05-18T11:49:20.922Z,63.50
2018-05-18T11:51:48.486Z,63.70
2018-05-18T11:54:16.813Z,67.80
2018-05-18T11:56:44.435Z,67.80
2018-05-18T11:59:11.985Z,65.80
2018-05-18T12:01:39.548Z,64.20
2018-05-18T12:04:07.874Z,68.00
2018-05-18T12:06:35.432Z,68.00
2018-05-18T12:09:03.768Z,67.10
2018-05-18T12:11:32.069Z,67.40
2018-05-18T12:13:59.655Z,67.40
2018-05-18T12:16:27.192Z,67.80
2018-05-18T12:18:54.728Z,68.30
2018-05-18T12:21:23.043Z,67.30
2018-05-18T12:23:50.578Z,67.20
2018-05-18T12:26:18.910Z,68.80
2018-05-18T12:28:46.457Z,69.00
2018-05-18T12:31:13.987Z,70.10
2018-05-18T12:33:41.547Z,70.00
2018-05-18T12:36:09.874Z,70.10
2018-05-18T12:38:37.539Z,70.10
2018-05-18T12:41:05.107Z,69.40
2018-05-18T12:43:32.691Z,70.60
2018-05-18T12:46:00.216Z,69.70
2018-05-18T12:48:28.521Z,70.00
2018-05-18T12:50:56.079Z,70.00
2018-05-18T12:53:23.609Z,70.80
2018-05-18T12:55:51.929Z,67.50
2018-05-18T12:58:19.596Z,67.50
2018-05-18T13:00:47.154Z,67.60
2018-05-18T13:03:14.719Z,69.10
2018-05-18T13:05:42.262Z,68.50
2018-05-18T13:08:10.665Z,67.60
2018-05-18T13:10:38.143Z,67.60
2018-05-18T13:13:05.695Z,67.60
2018-05-18T13:15:34.002Z,66.70
2018-05-18T13:18:01.541Z,66.70
2018-05-18T13:20:29.123Z,68.60
2018-05-18T13:22:56.631Z,70.30
2018-05-18T13:25:24.949Z,68.10
2018-05-18T13:27:52.512Z,68.10
2018-05-18T13:30:20.076Z,69.70
2018-05-18T13:32:47.606Z,70.20
2018-05-18T13:35:15.921Z,69.40
2018-05-18T13:37:43.491Z,69.30
2018-05-18T13:40:11.056Z,71.60
2018-05-18T13:42:38.620Z,71.20
2018-05-18T13:45:06.228Z,71.40
2018-05-18T13:47:33.732Z,70.20
2018-05-18T13:50:01.270Z,70.60
2018-05-18T13:52:28.794Z,70.60
2018-05-18T13:54:56.337Z,71.00
2018-05-18T13:57:23.893Z,71.10
2018-05-18T13:59:51.462Z,70.60
2018-05-18T14:02:19.032Z,69.10
2018-05-18T14:04:46.598Z,67.10
2018-05-18T14:07:14.159Z,68.00
2018-05-18T14:09:41.715Z,68.70
2018-05-18T14:12:09.253Z,66.40
2018-05-18T14:14:37.671Z,64.50
2018-05-18T14:17:05.205Z,64.50
2018-05-18T14:19:33.493Z,65.20
2018-05-18T14:22:01.817Z,62.50
2018-05-18T14:24:29.361Z,62.40
2018-05-18T14:26:56.901Z,63.30
2018-05-18T14:29:25.207Z,64.80
2018-05-18T14:31:52.750Z,64.80
2018-05-18T14:34:21.156Z,63.40
2018-05-18T14:36:48.720Z,63.30
2018-05-18T14:39:16.313Z,63.70
2018-05-18T14:41:44.778Z,63.70
2018-05-18T14:44:12.349Z,65.60
2018-05-18T14:46:39.900Z,65.50
2018-05-18T14:49:07.438Z,64.80
2018-05-18T14:51:35.746Z,67.40
2018-05-18T14:54:03.280Z,67.40
2018-05-18T14:56:31.593Z,66.50
2018-05-18T14:58:59.119Z,66.50
2018-05-18T15:01:26.723Z,67.00
2018-05-18T15:03:55.207Z,65.20
2018-05-18T15:06:22.763Z,65.20
2018-05-18T15:08:50.319Z,63.10
2018-05-18T15:11:18.722Z,64.80
2018-05-18T15:13:46.285Z,64.80
2018-05-18T15:16:13.888Z,64.40
2018-05-18T15:18:41.394Z,65.00
2018-05-18T15:21:08.945Z,64.40
2018-05-18T15:23:37.241Z,65.10
2018-05-18T15:26:05.541Z,62.70
2018-05-18T15:28:33.853Z,62.80
2018-05-18T15:31:01.389Z,62.80
2018-05-18T15:33:28.925Z,64.40
2018-05-18T15:35:57.249Z,64.10
2018-05-18T15:38:24.795Z,64.10
2018-05-18T15:40:52.324Z,62.60
2018-05-18T15:43:19.922Z,60.40
2018-05-18T15:45:47.468Z,62.50
2018-05-18T15:48:15.773Z,60.10
2018-05-18T15:50:43.435Z,60.00
2018-05-18T15:53:11.006Z,60.00
2018-05-18T15:55:38.565Z,60.60
2018-05-18T15:58:06.233Z,59.40
2018-05-18T16:00:33.778Z,60.00
2018-05-18T16:03:02.077Z,61.30
2018-05-18T16:05:29.747Z,61.20
2018-05-18T16:07:57.269Z,63.60
2018-05-18T16:10:25.604Z,65.80
2018-05-18T16:12:53.219Z,65.70
2018-05-18T16:15:20.716Z,66.60
2018-05-18T16:17:48.273Z,66.40
2018-05-18T16:20:15.800Z,65.70
2018-05-18T16:22:43.351Z,63.90
2018-05-18T16:25:10.877Z,65.90
2018-05-18T16:27:38.441Z,66.40
2018-05-18T16:30:05.968Z,67.90
2018-05-18T16:32:33.522Z,66.90
2018-05-18T16:35:01.075Z,66.70
2018-05-18T16:37:28.666Z,65.90
2018-05-18T16:39:56.368Z,68.50
2018-05-18T16:42:23.932Z,67.50
2018-05-18T16:44:51.488Z,68.10
2018-05-18T16:47:19.060Z,67.00
2018-05-18T16:49:46.603Z,68.00
2018-05-18T16:52:14.911Z,69.70
2018-05-18T16:54:42.443Z,69.70
2018-05-18T16:57:10.792Z,69.60
2018-05-18T16:59:38.320Z,69.60
2018-05-18T17:02:05.986Z,67.60
2018-05-18T17:04:33.535Z,68.80
2018-05-18T17:07:01.113Z,69.60
2018-05-18T17:09:28.681Z,68.60
2018-05-18T17:11:56.244Z,69.40
2018-05-18T17:14:23.909Z,70.10
2018-05-18T17:16:51.482Z,71.80
2018-05-18T17:19:19.032Z,72.70
2018-05-18T17:21:46.554Z,71.40
2018-05-18T17:24:14.101Z,71.60
2018-05-18T17:26:41.633Z,71.70
2018-05-18T17:29:09.299Z,72.60
2018-05-18T17:31:36.832Z,72.40
2018-05-18T17:34:05.141Z,72.20
2018-05-18T17:36:32.810Z,72.20
2018-05-18T17:39:00.341Z,71.70
2018-05-18T17:41:28.667Z,72.00
2018-05-18T17:43:56.218Z,72.00
2018-05-18T17:46:23.888Z,72.00
2018-05-18T17:48:51.545Z,71.50
2018-05-18T17:51:19.189Z,71.00
2018-05-18T17:53:47.511Z,71.30
2018-05-18T17:56:15.820Z,71.70
2018-05-18T17:58:43.441Z,71.70
2018-05-18T18:01:10.992Z,71.10
2018-05-18T18:03:39.328Z,71.50
2018-05-18T18:06:06.881Z,71.50
2018-05-18T18:08:34.525Z,71.50
2018-05-18T18:11:02.896Z,71.70
2018-05-18T18:13:31.054Z,71.70
2018-05-18T18:15:59.463Z,71.80
2018-05-18T18:18:27.122Z,71.80
2018-05-18T18:20:54.702Z,71.50
2018-05-18T18:23:22.369Z,71.50
2018-05-18T18:25:49.924Z,71.40
2018-05-18T18:28:17.476Z,70.10
2018-05-18T18:30:45.042Z,71.70
2018-05-18T18:33:12.732Z,73.00
2018-05-18T18:35:40.278Z,73.60
2018-05-18T18:38:07.884Z,73.90
2018-05-18T18:40:35.477Z,74.00
2018-05-18T18:43:03.022Z,73.70
2018-05-18T18:45:30.601Z,73.00
2018-05-18T18:47:58.164Z,72.80
2018-05-18T18:50:25.757Z,73.10
2018-05-18T18:52:54.153Z,73.60
2018-05-18T18:55:21.857Z,73.60
2018-05-18T18:57:49.441Z,73.80
2018-05-18T19:00:17.623Z,74.00
2018-05-18T19:02:45.354Z,73.80
2018-05-18T19:05:13.629Z,74.20
2018-05-18T19:07:41.364Z,73.80
2018-05-18T19:10:09.882Z,75.00
2018-05-18T19:12:37.690Z,74.90
2018-05-18T19:15:05.349Z,75.30
2018-05-18T19:17:32.976Z,75.50
2018-05-18T19:20:00.642Z,75.50
2018-05-18T19:22:28.245Z,75.50
2018-05-18T19:24:55.875Z,75.00
2018-05-18T19:27:23.452Z,75.40
2018-05-18T19:29:51.170Z,76.30
2018-05-18T19:32:20.319Z,76.00
2018-05-18T19:34:47.986Z,76.00
2018-05-18T19:37:15.599Z,76.00
2018-05-18T19:39:43.197Z,76.80
2018-05-18T19:42:11.676Z,77.90
2018-05-18T19:44:40.098Z,78.30
2018-05-18T19:47:07.686Z,78.30
2018-05-18T19:49:35.330Z,78.90
2018-05-18T19:52:02.957Z,80.00
2018-05-18T19:54:30.536Z,82.10
2018-05-18T19:56:58.160Z,82.50
2018-05-18T19:59:26.684Z,82.40
2018-05-18T20:01:55.293Z,81.10
2018-05-18T20:04:22.956Z,80.90
2018-05-18T20:06:50.831Z,80.80
2018-05-18T20:09:18.442Z,80.30
2018-05-18T20:11:46.218Z,79.60
2018-05-18T20:14:13.782Z,78.60
2018-05-18T20:16:42.010Z,79.90
2018-05-18T20:19:09.659Z,79.40
2018-05-18T20:21:37.339Z,78.70
2018-05-18T20:24:05.111Z,77.40
2018-05-18T20:26:32.695Z,77.10
2018-05-18T20:29:00.276Z,76.30
2018-05-18T20:31:27.835Z,76.70
2018-05-18T20:33:55.405Z,75.20
2018-05-18T20:36:22.977Z,74.10
2018-05-18T20:38:50.580Z,75.20
2018-05-18T20:41:18.181Z,75.20
2018-05-18T20:43:45.728Z,75.00
2018-05-18T20:46:13.305Z,74.70
2018-05-18T20:48:40.877Z,74.80
2018-05-18T20:51:08.452Z,74.10
2018-05-18T20:53:36.033Z,75.00
2018-05-18T20:56:03.605Z,75.80
2018-05-18T20:58:31.999Z,76.80
2018-05-18T21:00:59.520Z,76.80
2018-05-18T21:03:27.067Z,76.80
2018-05-18T21:05:54.636Z,76.70
2018-05-18T21:08:22.198Z,75.70
2018-05-18T21:10:49.757Z,75.80
2018-05-18T21:13:17.331Z,76.10
2018-05-18T21:15:44.886Z,76.70
2018-05-18T21:18:12.452Z,76.70
2018-05-18T21:20:39.991Z,76.70
2018-05-18T21:23:08.314Z,77.30
2018-05-18T21:25:35.962Z,77.30
2018-05-18T21:28:03.485Z,77.60
2018-05-18T21:30:31.909Z,77.50
2018-05-18T21:32:59.386Z,77.50
2018-05-18T21:35:26.960Z,76.00
2018-05-18T21:37:54.523Z,76.40
2018-05-18T21:40:22.085Z,76.80
2018-05-18T21:42:49.655Z,75.90
2018-05-18T21:45:17.300Z,76.60
2018-05-18T21:47:45.731Z,77.60
2018-05-18T21:50:13.349Z,77.70
2018-05-18T21:52:40.914Z,76.80
2018-05-18T21:55:08.430Z,77.10
2018-05-18T21:57:35.970Z,78.60
2018-05-18T22:00:03.532Z,77.90
2018-05-18T22:02:31.172Z,77.70
2018-05-18T22:04:58.840Z,77.80
2018-05-18T22:07:26.389Z,78.30
2018-05-18T22:09:53.937Z,77.60
2018-05-18T22:12:22.271Z,78.10
2018-05-18T22:14:49.815Z,78.00
2018-05-18T22:17:17.382Z,77.70
2018-05-18T22:19:44.904Z,77.80
2018-05-18T22:22:12.507Z,78.10
2018-05-18T22:24:40.056Z,77.90
2018-05-18T22:27:08.462Z,78.10
2018-05-18T22:29:36.011Z,78.10
2018-05-18T22:32:03.532Z,78.40
2018-05-18T22:34:31.075Z,79.60
2018-05-18T22:36:58.602Z,80.00
2018-05-18T22:39:26.159Z,80.50
2018-05-18T22:41:54.560Z,81.40
2018-05-18T22:44:22.099Z,81.40
2018-05-18T22:46:50.406Z,81.10
2018-05-18T22:51:51.816Z,80.70
2018-05-18T22:54:19.352Z,80.40
2018-05-18T22:56:46.906Z,79.70
2018-05-18T22:59:14.470Z,79.70
2018-05-18T23:01:42.006Z,79.70
2018-05-18T23:04:10.422Z,80.20
2018-05-18T23:06:37.937Z,80.10
2018-05-18T23:09:05.552Z,79.80
2018-05-18T23:11:33.088Z,79.70
2018-05-18T23:14:00.649Z,79.50
2018-05-18T23:16:29.061Z,78.70
2018-05-18T23:18:56.618Z,78.70
2018-05-18T23:21:24.138Z,78.60
2018-05-18T23:23:51.694Z,78.60
2018-05-18T23:26:19.226Z,78.30
2018-05-18T23:28:46.767Z,78.30
2018-05-18T23:31:14.312Z,78.50
2018-05-18T23:33:42.613Z,79.10
2018-05-18T23:36:10.161Z,79.10
2018-05-18T23:38:38.475Z,79.40
2018-05-18T23:41:05.997Z,79.40
2018-05-18T23:43:34.419Z,79.10
2018-05-18T23:46:01.991Z,79.40
2018-05-18T23:48:29.531Z,79.70
2018-05-18T23:50:57.816Z,80.00
2018-05-18T23:53:25.348Z,80.00
2018-05-18T23:55:52.903Z,80.20
2018-05-18T23:58:21.202Z,80.40
